Time;durP1;ratioP1;P1;durP2;ratioP2;P2;SDS_P1;SDS_P2;PMS_P1;PMS_P2;Temp;Humidity;BMP_temperature;BMP_pressure;BME280_temperature;BME280_humidity;BME280_pressure;Samples;Min_cycle;Max_cycle;Signal;HPM_P1;HPM_P2
2021/05/08 00:00:17;;;;;;;6.25;4.88;;;7.30;99.90;;;;;;4978292;28;20223;-69
2021/05/08 00:02:43;;;;;;;8.65;5.05;;;7.30;99.90;;;;;;4988227;28;20209;-70
2021/05/08 00:05:12;;;;;;;9.45;5.70;;;7.20;99.90;;;;;;4992299;28;20265;-69
2021/05/08 00:07:40;;;;;;;7.95;4.50;;;7.20;99.90;;;;;;4994112;28;20261;-69
2021/05/08 00:10:09;;;;;;;8.60;6.82;;;7.10;99.90;;;;;;4990508;28;20250;-69
2021/05/08 00:12:36;;;;;;;8.32;5.85;;;7.00;99.90;;;;;;4991571;28;20238;-70
2021/05/08 00:15:03;;;;;;;9.82;5.65;;;7.00;99.90;;;;;;4993628;28;20251;-69
2021/05/08 00:17:30;;;;;;;9.18;4.82;;;6.90;99.90;;;;;;4998597;28;20630;-69
2021/05/08 00:19:57;;;;;;;11.77;8.45;;;6.90;99.90;;;;;;4997146;28;20229;-69
2021/05/08 00:22:23;;;;;;;10.88;6.38;;;7.00;99.90;;;;;;4989897;28;20587;-68
2021/05/08 00:24:52;;;;;;;8.27;6.10;;;7.00;99.90;;;;;;4985200;28;20202;-69
2021/05/08 00:27:18;;;;;;;11.35;7.32;;;6.90;99.90;;;;;;4984404;28;20206;-69
2021/05/08 00:29:46;;;;;;;8.57;6.78;;;6.80;99.90;;;;;;4993257;28;20202;-69
2021/05/08 00:32:13;;;;;;;9.00;6.45;;;6.70;99.90;;;;;;4996715;28;20201;-68
2021/05/08 00:34:40;;;;;;;6.82;4.85;;;6.70;99.90;;;;;;4998436;28;20212;-69
2021/05/08 00:37:08;;;;;;;12.93;7.05;;;6.70;99.90;;;;;;4998083;28;20230;-70
2021/05/08 00:39:34;;;;;;;12.18;6.40;;;6.60;99.90;;;;;;4995601;28;20206;-70
2021/05/08 00:42:02;;;;;;;9.80;6.50;;;6.60;99.90;;;;;;4996320;28;20201;-71
2021/05/08 00:44:30;;;;;;;11.75;6.47;;;6.50;99.90;;;;;;4995446;28;20656;-71
2021/05/08 00:46:57;;;;;;;6.50;5.40;;;6.50;99.90;;;;;;4997516;28;20222;-71
2021/05/08 00:49:27;;;;;;;10.70;5.80;;;6.50;99.90;;;;;;4995721;28;20217;-70
2021/05/08 00:51:55;;;;;;;8.88;5.60;;;6.40;99.90;;;;;;4993576;28;20208;-70
2021/05/08 00:54:22;;;;;;;9.40;7.72;;;6.40;99.90;;;;;;4998427;28;20645;-69
2021/05/08 00:56:48;;;;;;;8.10;7.00;;;6.30;99.90;;;;;;4997988;28;20244;-70
2021/05/08 00:59:16;;;;;;;10.85;7.20;;;6.30;99.90;;;;;;4989430;28;20281;-69
2021/05/08 01:01:43;;;;;;;11.93;7.63;;;6.30;99.90;;;;;;4988587;28;20213;-70
2021/05/08 01:04:10;;;;;;;18.25;6.75;;;6.20;99.90;;;;;;4996001;28;20210;-70
2021/05/08 01:06:39;;;;;;;12.70;7.95;;;6.20;99.90;;;;;;4995595;28;20250;-70
2021/05/08 01:09:07;;;;;;;11.88;6.00;;;6.20;99.90;;;;;;4993604;28;20901;-70
2021/05/08 01:11:34;;;;;;;7.85;6.30;;;6.20;99.90;;;;;;4998377;28;20212;-69
2021/05/08 01:14:01;;;;;;;11.07;7.65;;;6.20;99.90;;;;;;4996777;28;20608;-69
2021/05/08 01:16:29;;;;;;;10.10;7.50;;;6.20;99.90;;;;;;4992548;28;20272;-70
2021/05/08 01:19:21;;;;;;;12.40;6.80;;;6.20;99.90;;;;;;4994892;28;20281;-68
2021/05/08 01:21:49;;;;;;;9.82;7.25;;;6.20;99.90;;;;;;4997943;28;20664;-70
2021/05/08 01:24:17;;;;;;;10.52;8.45;;;6.20;99.90;;;;;;4995727;28;20297;-70
2021/05/08 01:26:44;;;;;;;8.30;6.70;;;6.10;99.90;;;;;;4995555;28;20456;-70
2021/05/08 01:29:11;;;;;;;10.10;7.32;;;6.20;99.90;;;;;;4995431;28;20213;-70
2021/05/08 01:31:37;;;;;;;12.55;7.53;;;6.20;99.90;;;;;;5002157;28;20228;-71
2021/05/08 01:34:04;;;;;;;10.50;7.15;;;6.10;99.90;;;;;;4995282;28;20201;-70
2021/05/08 01:36:32;;;;;;;10.13;7.70;;;6.10;99.90;;;;;;4995042;28;20272;-69
2021/05/08 01:39:00;;;;;;;13.75;6.60;;;6.10;99.90;;;;;;4990235;28;20265;-69
2021/05/08 01:41:27;;;;;;;8.48;7.57;;;6.00;99.90;;;;;;4993756;28;20205;-70
2021/05/08 01:43:54;;;;;;;8.75;7.65;;;6.00;99.90;;;;;;4995346;28;20202;-69
2021/05/08 01:46:21;;;;;;;8.75;7.65;;;6.00;99.90;;;;;;4997353;28;20230;-70
2021/05/08 01:48:48;;;;;;;15.45;8.40;;;5.80;99.90;;;;;;4997021;28;20233;-70
2021/05/08 01:51:15;;;;;;;13.77;8.48;;;5.70;99.90;;;;;;4992281;28;20217;-69
2021/05/08 01:53:50;;;;;;;12.27;8.05;;;5.70;99.90;;;;;;4995261;28;20256;-69
2021/05/08 01:56:17;;;;;;;9.13;8.15;;;5.70;99.90;;;;;;4990490;28;20291;-69
2021/05/08 01:58:44;;;;;;;10.52;9.07;;;5.60;99.90;;;;;;4998577;28;20724;-69
2021/05/08 02:01:11;;;;;;;12.07;9.25;;;5.60;99.90;;;;;;4994483;28;20214;-69
2021/05/08 02:03:38;;;;;;;10.73;8.13;;;5.60;99.90;;;;;;4994846;28;20202;-70
2021/05/08 02:06:05;;;;;;;12.85;10.70;;;5.50;99.90;;;;;;4994509;28;20271;-70
2021/05/08 02:08:31;;;;;;;10.13;7.82;;;5.40;99.90;;;;;;4993885;28;20586;-70
2021/05/08 02:10:58;;;;;;;12.45;9.52;;;5.40;99.90;;;;;;4994876;28;20197;-70
2021/05/08 02:13:26;;;;;;;12.32;8.93;;;5.40;99.90;;;;;;4994591;28;20689;-70
2021/05/08 02:15:52;;;;;;;9.95;8.95;;;5.40;99.90;;;;;;4994995;28;20248;-69
2021/05/08 02:18:19;;;;;;;15.27;8.95;;;5.30;99.90;;;;;;4993128;28;20225;-70
2021/05/08 02:20:46;;;;;;;11.63;8.85;;;5.30;99.90;;;;;;4995132;28;20582;-70
2021/05/08 02:23:15;;;;;;;8.70;7.68;;;5.20;99.90;;;;;;4984351;28;20301;-69
2021/05/08 02:25:42;;;;;;;10.60;8.00;;;5.20;99.90;;;;;;4993064;28;20233;-69
2021/05/08 02:28:10;;;;;;;8.70;7.90;;;5.20;99.90;;;;;;4986320;28;20232;-70
2021/05/08 02:30:39;;;;;;;10.10;8.50;;;5.10;99.90;;;;;;4987652;28;20209;-69
2021/05/08 02:33:07;;;;;;;9.20;8.35;;;5.10;99.90;;;;;;4985385;28;20292;-69
2021/05/08 02:35:35;;;;;;;11.52;9.75;;;5.10;99.90;;;;;;4994110;28;20221;-69
2021/05/08 02:38:02;;;;;;;8.57;7.78;;;5.10;99.90;;;;;;4994367;28;20599;-70
2021/05/08 02:40:30;;;;;;;9.27;8.20;;;5.10;99.90;;;;;;4988225;28;20563;-70
2021/05/08 02:42:57;;;;;;;9.50;7.82;;;5.10;99.90;;;;;;4987305;28;20210;-69
2021/05/08 02:45:24;;;;;;;13.60;9.07;;;5.20;99.90;;;;;;4999770;28;20261;-69
2021/05/08 02:47:52;;;;;;;11.43;9.75;;;5.20;99.90;;;;;;4994544;28;20641;-70
2021/05/08 02:50:20;;;;;;;12.10;7.72;;;5.10;99.90;;;;;;4992612;28;20220;-70
2021/05/08 02:52:47;;;;;;;12.80;9.85;;;5.10;99.90;;;;;;4992370;28;20563;-70
2021/05/08 02:55:15;;;;;;;10.20;8.65;;;5.10;99.90;;;;;;4985135;28;20225;-70
2021/05/08 02:57:42;;;;;;;11.98;8.48;;;5.10;99.90;;;;;;4994372;28;20283;-69
2021/05/08 03:00:12;;;;;;;11.27;9.18;;;5.00;99.90;;;;;;4996244;28;20197;-70
2021/05/08 03:02:39;;;;;;;9.55;8.68;;;5.00;99.90;;;;;;4994236;28;20214;-69
2021/05/08 03:05:08;;;;;;;9.95;7.45;;;5.00;99.90;;;;;;4992317;28;20284;-69
2021/05/08 03:07:35;;;;;;;9.10;8.10;;;5.00;99.90;;;;;;4988656;28;20202;-69
2021/05/08 03:10:03;;;;;;;12.63;8.85;;;5.00;99.90;;;;;;4994011;28;20240;-70
2021/05/08 03:12:29;;;;;;;9.68;8.68;;;5.00;99.90;;;;;;4993496;28;20209;-70
2021/05/08 03:14:57;;;;;;;9.82;8.82;;;5.00;99.90;;;;;;4992838;28;20209;-69
2021/05/08 03:17:24;;;;;;;10.73;8.80;;;5.00;99.90;;;;;;4995043;28;20213;-68
2021/05/08 03:19:51;;;;;;;8.68;7.68;;;5.00;99.90;;;;;;4987549;28;20293;-69
2021/05/08 03:22:18;;;;;;;9.18;8.38;;;4.90;99.90;;;;;;4987285;28;20215;-69
2021/05/08 03:24:45;;;;;;;11.25;9.52;;;4.90;99.90;;;;;;4987360;28;20284;-69
2021/05/08 03:27:12;;;;;;;8.82;7.93;;;4.90;99.90;;;;;;4992984;28;20580;-69
2021/05/08 03:29:39;;;;;;;9.55;8.13;;;4.90;99.90;;;;;;4991124;28;20206;-70
2021/05/08 03:32:05;;;;;;;13.45;8.77;;;4.90;99.90;;;;;;4992246;28;20198;-70
2021/05/08 03:34:34;;;;;;;13.07;8.55;;;4.90;99.90;;;;;;4994785;28;20202;-69
2021/05/08 03:37:01;;;;;;;11.05;8.70;;;4.90;99.90;;;;;;4991000;28;20225;-68
2021/05/08 03:39:28;;;;;;;11.82;9.75;;;4.90;99.90;;;;;;4993042;28;20201;-70
2021/05/08 03:41:55;;;;;;;11.85;10.20;;;4.90;99.90;;;;;;4992826;28;20212;-70
2021/05/08 03:44:22;;;;;;;10.35;7.25;;;5.00;99.90;;;;;;4992917;28;20205;-70
2021/05/08 03:46:49;;;;;;;12.02;9.13;;;5.00;99.90;;;;;;4989423;28;20222;-70
2021/05/08 03:49:15;;;;;;;12.50;9.77;;;4.90;99.90;;;;;;4992829;28;20578;-70
2021/05/08 03:51:42;;;;;;;10.13;9.05;;;4.90;99.90;;;;;;4991692;28;20286;-70
2021/05/08 03:54:09;;;;;;;10.70;9.60;;;4.90;99.90;;;;;;4984514;28;20296;-70
2021/05/08 03:56:37;;;;;;;9.73;8.88;;;4.90;99.90;;;;;;4992669;28;20220;-69
2021/05/08 03:59:04;;;;;;;11.88;10.35;;;5.00;99.90;;;;;;4991905;28;20680;-70
2021/05/08 04:01:30;;;;;;;10.63;9.43;;;4.90;99.90;;;;;;4991717;28;20193;-69
2021/05/08 04:03:57;;;;;;;14.45;8.98;;;4.90;99.90;;;;;;4992034;28;20244;-69
2021/05/08 04:06:24;;;;;;;9.98;8.95;;;4.90;99.90;;;;;;4981974;28;20300;-69
2021/05/08 04:08:51;;;;;;;18.90;10.45;;;4.90;99.90;;;;;;4983946;28;20202;-70
2021/05/08 04:11:18;;;;;;;14.48;10.68;;;4.90;99.90;;;;;;4993001;28;20201;-70
2021/05/08 04:13:45;;;;;;;12.32;10.70;;;5.00;99.90;;;;;;4992451;28;20214;-69
2021/05/08 04:16:12;;;;;;;12.18;10.98;;;5.00;99.90;;;;;;4992798;28;20244;-69
2021/05/08 04:18:39;;;;;;;12.75;10.48;;;5.00;99.90;;;;;;4989137;28;20600;-69
2021/05/08 04:21:05;;;;;;;12.45;8.90;;;5.10;99.90;;;;;;4991255;28;20201;-70
2021/05/08 04:23:32;;;;;;;25.98;11.95;;;5.10;99.90;;;;;;4977688;28;20210;-69
2021/05/08 04:26:00;;;;;;;16.85;11.02;;;5.10;99.90;;;;;;4992631;28;20595;-70
2021/05/08 04:28:26;;;;;;;19.05;12.30;;;5.20;99.90;;;;;;4993295;28;20211;-74
2021/05/08 04:30:54;;;;;;;12.32;11.13;;;5.20;99.90;;;;;;4991795;28;20575;-68
2021/05/08 04:33:21;;;;;;;13.32;11.25;;;5.30;99.90;;;;;;4981149;28;20205;-69
2021/05/08 04:35:56;;;;;;;12.57;11.38;;;5.30;99.90;;;;;;4992621;28;20217;-70
2021/05/08 04:38:23;;;;;;;12.75;11.48;;;5.40;99.90;;;;;;4993187;28;20221;-69
2021/05/08 04:40:53;;;;;;;15.23;12.05;;;5.60;99.90;;;;;;4992986;28;20197;-69
2021/05/08 04:43:19;;;;;;;13.52;10.45;;;6.30;99.90;;;;;;4992001;28;20209;-70
2021/05/08 04:45:46;;;;;;;11.35;9.98;;;7.00;99.90;;;;;;4992164;28;20232;-69
2021/05/08 04:48:22;;;;;;;14.75;11.10;;;7.50;99.90;;;;;;4991554;28;20202;-70
2021/05/08 04:50:49;;;;;;;11.43;10.13;;;7.60;99.90;;;;;;4976014;28;20206;-69
2021/05/08 04:53:15;;;;;;;11.95;10.20;;;7.90;99.90;;;;;;4982625;28;20226;-70
2021/05/08 04:55:42;;;;;;;9.98;8.98;;;8.60;99.90;;;;;;4993425;28;20228;-70
2021/05/08 04:58:09;;;;;;;9.98;8.27;;;9.30;99.90;;;;;;4991539;28;20226;-70
2021/05/08 05:00:37;;;;;;;10.30;8.63;;;9.90;99.90;;;;;;4985489;28;20206;-70
2021/05/08 05:03:03;;;;;;;12.93;11.32;;;10.30;99.90;;;;;;4990696;28;20213;-70
2021/05/08 05:05:31;;;;;;;11.32;8.73;;;10.60;99.90;;;;;;4996229;28;20279;-70
2021/05/08 05:07:58;;;;;;;10.20;9.20;;;10.80;99.90;;;;;;4984771;28;20534;-71
2021/05/08 05:10:24;;;;;;;10.10;8.98;;;11.30;99.90;;;;;;4984121;28;20261;-70
2021/05/08 05:12:51;;;;;;;9.93;8.88;;;11.70;98.40;;;;;;4991989;28;20256;-69
2021/05/08 05:15:18;;;;;;;10.73;9.57;;;12.30;98.10;;;;;;4991521;28;20217;-69
2021/05/08 05:17:45;;;;;;;10.68;9.43;;;12.90;96.30;;;;;;4990362;28;20228;-71
2021/05/08 05:20:13;;;;;;;8.68;7.88;;;13.00;95.00;;;;;;4994527;28;20298;-72
2021/05/08 05:22:41;;;;;;;10.70;9.60;;;12.90;94.60;;;;;;4990985;28;20216;-70
2021/05/08 05:25:09;;;;;;;10.52;9.15;;;13.20;93.90;;;;;;4998770;28;20269;-70
2021/05/08 05:27:36;;;;;;;8.70;7.80;;;13.40;93.50;;;;;;4996677;28;20578;-69
2021/05/08 05:30:03;;;;;;;9.25;8.32;;;13.90;93.00;;;;;;4991412;28;20229;-70
2021/05/08 05:32:30;;;;;;;9.57;8.60;;;13.90;92.30;;;;;;4994857;28;20205;-70
2021/05/08 05:34:56;;;;;;;7.78;7.00;;;14.40;92.10;;;;;;4994951;28;20206;-71
2021/05/08 05:37:23;;;;;;;8.95;8.02;;;14.80;91.40;;;;;;4995872;28;20707;-70
2021/05/08 05:39:51;;;;;;;9.32;7.82;;;15.00;91.00;;;;;;5006253;28;20279;-70
2021/05/08 05:42:17;;;;;;;8.55;7.65;;;15.00;90.30;;;;;;5004284;28;20220;-71
2021/05/08 05:44:44;;;;;;;7.35;6.65;;;15.10;90.00;;;;;;5002304;28;20202;-72
2021/05/08 05:47:21;;;;;;;8.75;7.85;;;15.50;90.00;;;;;;4994116;28;20252;-71
2021/05/08 05:49:49;;;;;;;7.45;6.70;;;15.60;88.70;;;;;;4990941;28;20256;-70
2021/05/08 05:52:15;;;;;;;8.23;7.40;;;16.00;88.40;;;;;;4991530;28;20221;-71
2021/05/08 05:54:46;;;;;;;8.48;7.63;;;16.10;85.90;;;;;;4993675;28;20206;-71
2021/05/08 05:57:14;;;;;;;8.32;7.53;;;16.30;87.10;;;;;;5001753;28;20234;-72
2021/05/08 05:59:41;;;;;;;7.00;6.30;;;16.60;85.90;;;;;;5005818;28;20211;-71
2021/05/08 06:02:08;;;;;;;7.68;6.97;;;16.80;84.10;;;;;;4993194;28;20218;-71
2021/05/08 06:04:35;;;;;;;6.20;5.60;;;17.00;84.00;;;;;;4990664;28;20217;-71
2021/05/08 06:07:02;;;;;;;7.15;6.45;;;17.70;83.10;;;;;;4993650;28;20228;-72
2021/05/08 06:09:29;;;;;;;7.20;6.50;;;17.60;80.60;;;;;;4992751;28;20223;-72
2021/05/08 06:11:56;;;;;;;9.32;6.00;;;17.50;80.90;;;;;;4990498;28;20210;-71
2021/05/08 06:14:25;;;;;;;7.00;6.30;;;17.70;80.80;;;;;;4995030;28;20295;-70
2021/05/08 06:16:54;;;;;;;5.73;5.23;;;18.20;80.50;;;;;;4996339;28;20990;-71
2021/05/08 06:19:20;;;;;;;8.23;6.60;;;18.50;78.50;;;;;;4987348;28;20467;-72
2021/05/08 06:21:47;;;;;;;9.57;6.30;;;18.40;77.20;;;;;;4992591;28;20440;-73
2021/05/08 06:24:14;;;;;;;7.67;6.87;;;18.90;78.30;;;;;;4981376;28;20452;-71
2021/05/08 06:26:42;;;;;;;6.23;5.57;;;18.90;76.80;;;;;;4990305;28;20546;-73
2021/05/08 06:29:08;;;;;;;7.17;6.47;;;19.50;76.80;;;;;;4994491;28;20591;-73
2021/05/08 06:31:36;;;;;;;6.87;5.50;;;19.60;74.40;;;;;;5002847;28;20497;-71
2021/05/08 06:34:03;;;;;;;7.90;5.80;;;19.40;74.80;;;;;;4998249;28;20449;-69
2021/05/08 06:36:30;;;;;;;7.67;5.97;;;19.20;75.50;;;;;;4991641;28;20470;-70
2021/05/08 06:38:57;;;;;;;6.30;5.60;;;19.00;75.30;;;;;;4988383;28;20492;-69
2021/05/08 06:41:24;;;;;;;7.07;5.20;;;18.90;76.00;;;;;;4993808;28;20455;-69
2021/05/08 06:43:51;;;;;;;7.00;6.13;;;19.40;76.40;;;;;;4990419;28;20456;-69
2021/05/08 06:46:18;;;;;;;5.17;4.67;;;19.40;74.80;;;;;;4998891;28;20479;-70
2021/05/08 06:48:45;;;;;;;6.00;4.40;;;19.60;75.10;;;;;;4993653;28;20503;-69
2021/05/08 06:51:12;;;;;;;5.53;4.27;;;19.70;74.30;;;;;;4993860;28;20463;-69
2021/05/08 06:53:40;;;;;;;5.40;4.63;;;19.90;75.00;;;;;;4999015;28;20447;-68
2021/05/08 06:56:07;;;;;;;7.23;4.73;;;19.60;73.50;;;;;;4999506;28;20511;-69
2021/05/08 06:58:34;;;;;;;6.67;5.13;;;19.80;73.20;;;;;;4998328;28;20560;-69
2021/05/08 07:01:00;;;;;;;5.23;4.33;;;19.70;73.70;;;;;;4994390;28;20456;-69
2021/05/08 07:03:27;;;;;;;5.40;3.93;;;19.60;72.40;;;;;;4997110;28;20448;-68
2021/05/08 07:05:55;;;;;;;5.40;3.90;;;19.40;73.20;;;;;;4993416;28;20472;-70
2021/05/08 07:08:21;;;;;;;4.50;4.10;;;19.80;73.30;;;;;;4992102;28;20456;-69
2021/05/08 07:10:49;;;;;;;6.20;3.77;;;20.20;72.10;;;;;;4992629;28;20915;-68
2021/05/08 07:13:17;;;;;;;6.07;4.00;;;20.30;70.70;;;;;;4992029;28;20480;-72
2021/05/08 07:15:43;;;;;;;7.70;4.13;;;20.20;70.40;;;;;;4995095;28;20822;-71
2021/05/08 07:18:10;;;;;;;7.27;4.40;;;20.10;70.10;;;;;;4990346;28;20485;-70
2021/05/08 07:20:39;;;;;;;29.67;22.67;;;19.60;71.20;;;;;;4992327;28;20484;-70
2021/05/08 07:23:08;;;;;;;5.37;3.80;;;20.40;71.60;;;;;;4994549;28;20441;-69
2021/05/08 07:25:36;;;;;;;9.87;4.00;;;19.90;70.30;;;;;;4993071;28;20488;-72
2021/05/08 07:28:11;;;;;;;5.87;3.47;;;20.30;69.90;;;;;;4990440;28;20447;-71
2021/05/08 07:30:38;;;;;;;6.47;3.20;;;20.90;68.60;;;;;;4992999;28;20471;-71
2021/05/08 07:33:07;;;;;;;3.60;3.27;;;21.20;68.20;;;;;;4993883;28;20460;-70
2021/05/08 07:35:34;;;;;;;5.60;3.33;;;21.50;66.10;;;;;;4992693;28;20474;-72
2021/05/08 07:38:01;;;;;;;4.60;3.10;;;21.30;65.80;;;;;;4995250;28;20490;-71
2021/05/08 07:40:30;;;;;;;4.43;3.20;;;20.80;66.60;;;;;;4987813;28;20439;-73
2021/05/08 07:42:58;;;;;;;5.03;3.40;;;21.00;66.40;;;;;;4993650;28;20536;-72
2021/05/08 07:45:25;;;;;;;6.80;3.57;;;20.20;67.00;;;;;;4992476;28;21003;-70
2021/05/08 07:47:52;;;;;;;3.97;3.10;;;19.50;68.60;;;;;;4988447;28;20461;-72
2021/05/08 07:50:19;;;;;;;5.60;3.43;;;20.20;68.40;;;;;;4990467;28;20456;-70
2021/05/08 07:52:45;;;;;;;7.40;4.50;;;20.60;65.90;;;;;;4987969;28;20513;-71
2021/05/08 07:55:13;;;;;;;5.03;3.80;;;20.10;66.00;;;;;;4992092;28;20495;-73
2021/05/08 07:57:41;;;;;;;7.30;4.20;;;19.50;68.40;;;;;;4996079;28;20865;-69
2021/05/08 08:00:10;;;;;;;9.23;4.17;;;19.70;68.40;;;;;;4986065;28;20445;-72
2021/05/08 08:02:38;;;;;;;4.70;3.30;;;20.10;68.20;;;;;;4991461;28;20449;-72
2021/05/08 08:05:07;;;;;;;5.00;3.80;;;21.10;68.00;;;;;;4985814;28;20944;-71
2021/05/08 08:07:34;;;;;;;5.60;3.37;;;20.00;64.30;;;;;;4978479;28;20451;-72
2021/05/08 08:10:04;;;;;;;4.87;3.37;;;20.20;64.40;;;;;;4988773;28;20500;-71
2021/05/08 08:12:31;;;;;;;4.03;3.23;;;20.10;65.60;;;;;;4988753;28;20442;-73
2021/05/08 08:14:59;;;;;;;4.10;3.00;;;19.60;65.50;;;;;;4980709;28;20446;-70
2021/05/08 08:17:27;;;;;;;5.47;3.20;;;18.90;65.10;;;;;;4987471;28;20484;-73
2021/05/08 08:19:54;;;;;;;4.77;3.60;;;19.20;66.30;;;;;;4982855;28;20457;-73
2021/05/08 08:22:21;;;;;;;5.50;2.90;;;19.40;65.60;;;;;;4982928;28;21181;-72
2021/05/08 08:24:48;;;;;;;3.73;3.20;;;20.30;66.20;;;;;;4990920;28;20448;-71
2021/05/08 08:27:14;;;;;;;5.50;3.50;;;20.60;64.60;;;;;;4992043;28;20566;-70
2021/05/08 08:29:41;;;;;;;5.70;3.53;;;21.30;63.00;;;;;;4993666;28;20443;-73
2021/05/08 08:32:09;;;;;;;3.93;3.60;;;20.40;62.80;;;;;;4991131;28;20467;-73
2021/05/08 08:34:37;;;;;;;3.80;3.40;;;20.50;63.40;;;;;;4994854;28;21045;-74
2021/05/08 08:37:04;;;;;;;6.63;3.50;;;20.20;64.70;;;;;;4997199;28;20685;-75
2021/05/08 08:39:35;;;;;;;4.07;3.63;;;19.90;64.00;;;;;;4996617;28;20449;-76
2021/05/08 08:42:03;;;;;;;4.10;3.50;;;19.70;65.70;;;;;;4994428;28;20539;-75
2021/05/08 08:44:30;;;;;;;6.20;4.20;;;20.00;65.60;;;;;;4994733;28;20952;-73
2021/05/08 08:46:57;;;;;;;5.30;3.80;;;19.60;63.70;;;;;;4992174;28;20874;-73
2021/05/08 08:49:25;;;;;;;4.00;3.60;;;19.70;65.10;;;;;;4991421;28;20460;-72
2021/05/08 08:51:54;;;;;;;9.93;4.03;;;19.90;65.40;;;;;;4990295;28;20457;-75
2021/05/08 08:54:22;;;;;;;6.13;4.43;;;19.60;63.30;;;;;;4983933;28;20448;-73
2021/05/08 08:56:51;;;;;;;6.40;4.20;;;19.40;63.70;;;;;;4995743;28;20947;-74
2021/05/08 08:59:27;;;;;;;6.50;4.50;;;19.90;65.10;;;;;;4995393;28;20492;-74
2021/05/08 09:01:54;;;;;;;5.50;3.53;;;20.60;62.70;;;;;;4976628;28;20505;-75
2021/05/08 09:04:24;;;;;;;5.93;4.20;;;21.00;60.70;;;;;;4989984;28;20443;-75
2021/05/08 09:06:50;;;;;;;9.73;4.50;;;20.60;59.20;;;;;;4991333;28;20470;-75
2021/05/08 09:09:19;;;;;;;7.43;5.03;;;20.40;61.50;;;;;;4994416;28;20594;-74
2021/05/08 09:11:47;;;;;;;6.70;4.90;;;20.60;62.20;;;;;;4995764;28;20533;-75
2021/05/08 09:14:22;;;;;;;6.03;4.37;;;20.30;60.20;;;;;;4995797;28;20457;-74
2021/05/08 09:17:02;;;;;;;4.57;3.93;;;20.50;61.10;;;;;;4989828;28;20496;-73
2021/05/08 09:19:30;;;;;;;8.37;4.20;;;20.70;60.40;;;;;;4988438;28;20460;-73
2021/05/08 09:21:57;;;;;;;8.03;5.07;;;20.60;60.10;;;;;;4994941;28;20457;-74
2021/05/08 09:24:24;;;;;;;6.47;4.90;;;19.60;60.20;;;;;;4994967;28;20969;-73
2021/05/08 09:26:53;;;;;;;8.27;5.33;;;20.30;60.70;;;;;;4994968;28;20983;-74
2021/05/08 09:29:23;;;;;;;7.43;5.43;;;20.60;59.80;;;;;;4997598;28;20446;-75
2021/05/08 09:31:54;;;;;;;6.17;4.40;;;20.50;59.30;;;;;;4995542;28;20477;-74
2021/05/08 09:34:21;;;;;;;5.50;4.87;;;20.50;60.80;;;;;;4992341;28;20473;-74
2021/05/08 09:36:53;;;;;;;5.23;4.40;;;20.80;60.00;;;;;;4996598;28;20474;-72
2021/05/08 09:39:33;;;;;;;6.27;4.73;;;20.60;59.00;;;;;;4992474;28;20545;-74
2021/05/08 09:42:01;;;;;;;5.47;4.40;;;20.90;59.80;;;;;;4993204;28;20485;-73
2021/05/08 09:44:28;;;;;;;7.20;5.07;;;21.30;58.80;;;;;;4984305;28;20452;-74
2021/05/08 09:47:00;;;;;;;7.47;4.50;;;20.90;56.50;;;;;;4989516;28;20483;-73
2021/05/08 09:49:27;;;;;;;5.47;4.97;;;20.00;57.50;;;;;;4986864;28;20603;-75
2021/05/08 09:52:01;;;;;;;7.90;5.70;;;19.00;60.20;;;;;;4998524;28;20460;-74
2021/05/08 09:54:28;;;;;;;6.77;6.07;;;18.70;61.30;;;;;;4993429;28;20455;-74
2021/05/08 09:57:01;;;;;;;7.50;5.10;;;18.60;63.20;;;;;;4990416;28;20979;-74
2021/05/08 09:59:30;;;;;;;8.63;5.57;;;19.30;60.80;;;;;;4993129;28;20564;-76
2021/05/08 10:02:15;;;;;;;6.00;4.57;;;20.40;57.50;;;;;;4994241;28;20451;-74
2021/05/08 10:04:44;;;;;;;6.30;5.00;;;20.80;57.00;;;;;;4972205;28;20442;-78
2021/05/08 10:07:13;;;;;;;7.23;6.53;;;20.60;57.60;;;;;;4987558;28;20578;-77
2021/05/08 10:09:41;;;;;;;5.70;3.87;;;20.60;57.90;;;;;;4987821;28;20854;-75
2021/05/08 10:12:10;;;;;;;5.23;4.67;;;20.00;58.50;;;;;;4982996;28;20954;-77
2021/05/08 10:14:38;;;;;;;8.17;5.60;;;19.90;56.70;;;;;;4989457;28;20456;-75
2021/05/08 10:17:05;;;;;;;7.13;4.23;;;19.40;58.10;;;;;;4985156;28;20470;-74
2021/05/08 10:19:33;;;;;;;8.47;5.63;;;20.10;57.20;;;;;;4987623;28;20449;-73
2021/05/08 10:22:02;;;;;;;7.83;5.00;;;20.20;55.80;;;;;;4993821;28;20464;-72
2021/05/08 10:24:30;;;;;;;5.53;3.87;;;20.10;56.30;;;;;;4993839;28;20969;-72
2021/05/08 10:26:58;;;;;;;5.50;4.30;;;20.30;51.30;;;;;;5002392;28;20922;-70
2021/05/08 10:29:26;;;;;;;6.87;4.70;;;20.40;49.30;;;;;;4997543;28;20535;-70
2021/05/08 10:31:54;;;;;;;6.37;4.27;;;20.40;51.20;;;;;;4996985;28;20525;-71
2021/05/08 10:34:32;;;;;;;7.60;4.47;;;20.50;54.10;;;;;;4995796;28;20551;-71
2021/05/08 10:37:09;;;;;;;7.10;5.30;;;20.50;53.80;;;;;;4986345;28;20468;-71
2021/05/08 10:39:56;;;;;;;6.03;5.40;;;19.50;55.40;;;;;;4976753;28;20907;-72
2021/05/08 10:42:34;;;;;;;5.30;4.80;;;18.90;53.60;;;;;;4987156;28;20502;-72
2021/05/08 10:45:01;;;;;;;6.03;4.40;;;18.70;55.00;;;;;;4990417;28;20452;-71
2021/05/08 10:48:03;;;;;;;11.20;5.23;;;18.60;54.20;;;;;;4979662;28;20447;-72
2021/05/08 10:50:37;;;;;;;5.77;4.23;;;18.30;53.80;;;;;;4980815;28;20984;-72
2021/05/08 10:53:05;;;;;;;5.53;4.60;;;18.20;54.90;;;;;;4987551;28;20479;-73
2021/05/08 10:55:44;;;;;;;7.03;4.93;;;18.60;55.60;;;;;;4982798;28;20472;-72
2021/05/08 10:58:39;;;;;;;7.40;5.53;;;18.40;55.40;;;;;;4991137;28;20489;-72
2021/05/08 11:01:11;;;;;;;12.67;6.03;;;18.40;55.30;;;;;;4990541;28;20456;-73
2021/05/08 11:04:03;;;;;;;6.83;5.73;;;18.50;56.20;;;;;;4993542;28;20451;-71
2021/05/08 11:06:29;;;;;;;8.97;6.40;;;17.90;56.10;;;;;;4989972;28;20517;-71
2021/05/08 11:08:56;;;;;;;6.17;5.57;;;17.70;57.00;;;;;;5002920;28;20937;-71
2021/05/08 11:11:43;;;;;;;7.10;5.30;;;18.30;58.60;;;;;;4994972;28;20543;-72
2021/05/08 11:14:10;;;;;;;6.70;5.67;;;18.60;56.90;;;;;;4989668;28;20456;-72
2021/05/08 11:16:54;;;;;;;7.67;4.90;;;18.80;56.40;;;;;;4998397;28;20477;-72
2021/05/08 11:19:22;;;;;;;6.27;5.67;;;19.00;57.40;;;;;;4990038;28;20484;-71
2021/05/08 11:21:49;;;;;;;6.90;5.93;;;18.90;56.80;;;;;;4994671;28;20463;-71
2021/05/08 11:24:40;;;;;;;6.73;5.90;;;18.70;56.30;;;;;;4989528;28;20459;-70
2021/05/08 11:27:28;;;;;;;7.17;6.10;;;18.60;56.80;;;;;;4975408;28;20484;-73
2021/05/08 11:30:10;;;;;;;6.27;5.67;;;18.20;56.90;;;;;;4996426;28;20981;-73
2021/05/08 11:32:47;;;;;;;7.87;6.10;;;18.40;58.50;;;;;;4984921;28;20813;-72
2021/05/08 11:35:26;;;;;;;7.43;6.50;;;18.20;58.80;;;;;;4996005;28;20810;-71
2021/05/08 11:37:52;;;;;;;9.27;8.47;;;18.40;58.70;;;;;;4988066;28;21026;-72
2021/05/08 11:40:31;;;;;;;8.27;5.93;;;18.50;58.20;;;;;;4989289;28;20554;-72
2021/05/08 11:42:59;;;;;;;10.63;6.13;;;18.40;58.60;;;;;;4981535;28;20448;-71
2021/05/08 11:45:25;;;;;;;8.20;5.67;;;18.40;58.60;;;;;;4989528;28;20488;-70
2021/05/08 11:47:52;;;;;;;8.27;7.40;;;18.60;58.30;;;;;;4992076;28;20841;-72
2021/05/08 11:50:20;;;;;;;6.37;5.77;;;18.70;57.50;;;;;;4989034;28;20543;-69
2021/05/08 11:52:49;;;;;;;8.03;5.90;;;19.00;57.40;;;;;;4991968;28;20463;-71
2021/05/08 11:55:18;;;;;;;6.47;5.87;;;18.70;56.80;;;;;;4977698;28;20535;-72
2021/05/08 11:57:50;;;;;;;6.13;5.43;;;18.40;57.00;;;;;;4987831;28;20499;-73
2021/05/08 12:00:19;;;;;;;5.63;5.00;;;18.00;57.90;;;;;;4991830;28;20456;-72
2021/05/08 12:02:47;;;;;;;6.70;5.60;;;17.90;57.40;;;;;;4993308;28;20511;-72
2021/05/08 12:05:14;;;;;;;8.15;5.28;;;17.70;58.00;;;;;;4989411;28;20465;-70
2021/05/08 12:07:42;;;;;;;4.33;3.80;;;17.80;57.20;;;;;;4986418;28;20746;-73
2021/05/08 12:10:14;;;;;;;8.87;6.53;;;18.00;58.60;;;;;;4988285;28;20500;-72
2021/05/08 12:12:46;;;;;;;6.13;5.50;;;18.00;58.00;;;;;;4985859;28;20531;-72
2021/05/08 12:15:13;;;;;;;8.63;5.80;;;18.20;57.50;;;;;;4995766;28;20854;-70
2021/05/08 12:17:41;;;;;;;6.30;5.13;;;18.30;56.70;;;;;;4993155;28;20481;-69
2021/05/08 12:20:10;;;;;;;6.37;5.40;;;18.40;57.50;;;;;;4980914;28;20483;-69
2021/05/08 12:22:40;;;;;;;5.80;5.00;;;18.40;57.50;;;;;;4986371;28;20857;-70
2021/05/08 12:25:15;;;;;;;6.67;5.40;;;18.40;57.20;;;;;;4991161;28;20444;-69
2021/05/08 12:27:42;;;;;;;5.10;4.43;;;18.30;56.40;;;;;;4979024;28;20457;-69
2021/05/08 12:30:10;;;;;;;7.57;5.30;;;18.50;56.50;;;;;;4995296;28;20454;-70
2021/05/08 12:32:49;;;;;;;7.30;5.83;;;18.50;56.60;;;;;;4990751;28;20530;-71
2021/05/08 12:35:16;;;;;;;7.57;5.17;;;18.40;56.60;;;;;;4968861;28;20477;-71
2021/05/08 12:37:43;;;;;;;6.60;4.80;;;18.60;57.00;;;;;;4995482;28;20491;-70
2021/05/08 12:40:10;;;;;;;7.30;5.30;;;18.80;56.60;;;;;;4992562;28;20446;-70
2021/05/08 12:42:42;;;;;;;7.80;5.57;;;18.90;56.50;;;;;;4995797;28;20454;-71
2021/05/08 12:45:10;;;;;;;8.00;5.40;;;18.80;56.90;;;;;;5003826;28;21052;-71
2021/05/08 12:47:39;;;;;;;6.83;4.80;;;18.30;56.20;;;;;;4990455;28;20459;-69
2021/05/08 12:50:12;;;;;;;6.50;4.90;;;18.00;57.50;;;;;;4998938;28;20467;-69
2021/05/08 12:52:40;;;;;;;7.43;6.07;;;17.70;57.60;;;;;;4997515;28;20906;-71
2021/05/08 12:55:21;;;;;;;9.80;7.17;;;17.90;58.10;;;;;;4997834;28;20211;-70